Time;durP1;ratioP1;P1;durP2;ratioP2;P2;SDS_P1;SDS_P2;PMS_P1;PMS_P2;Temp;Humidity;BMP_temperature;BMP_pressure;BME280_temperature;BME280_humidity;BME280_pressure;Samples;Min_cycle;Max_cycle;Signal;HPM_P1;HPM_P2
2023/02/09 00:02:32;;;;;;;;;;;;;;;25.71;38.26;95446.63;5044341;28;8583;-57
2023/02/09 00:05:10;;;;;;;;;;;;;;;25.70;38.31;95445.13;5029787;28;9138;-57
2023/02/09 00:07:41;;;;;;;;;;;;;;;25.69;37.75;95449.88;5017136;28;9501;-57
2023/02/09 00:10:08;;;;;;;;;;;;;;;25.67;38.45;95444.09;5029489;28;8586;-56
2023/02/09 00:15:21;;;;;;;;;;;;;;;25.66;37.74;95441.81;5045683;28;7282;-56
2023/02/09 00:17:47;;;;;;;;;;;;;;;25.66;37.31;95437.06;5040117;28;8986;-57
2023/02/09 00:20:13;;;;;;;;;;;;;;;25.66;37.66;95439.06;5049917;28;7274;-56
2023/02/09 00:22:41;;;;;;;;;;;;;;;25.63;38.27;95435.28;5031327;28;8964;-57
2023/02/09 00:25:14;;;;;;;;;;;;;;;25.69;37.58;95432.56;5046484;28;9088;-57
2023/02/09 00:27:42;;;;;;;;;;;;;;;25.69;38.01;95433.34;5032242;28;7312;-57
2023/02/09 00:30:08;;;;;;;;;;;;;;;25.70;38.39;95436.84;5031482;28;8997;-56
2023/02/09 00:32:37;;;;;;;;;;;;;;;25.69;38.18;95441.59;5039443;28;7036;-57
2023/02/09 00:35:06;;;;;;;;;;;;;;;25.69;38.30;95436.09;5029427;28;7540;-57
2023/02/09 00:37:34;;;;;;;;;;;;;;;25.69;38.30;95441.59;5027947;28;7042;-56
2023/02/09 00:40:09;;;;;;;;;;;;;;;25.71;38.16;95441.13;5031152;28;8990;-57
2023/02/09 00:42:36;;;;;;;;;;;;;;;25.69;37.32;95444.34;5046312;28;9592;-56
2023/02/09 00:45:19;;;;;;;;;;;;;;;25.68;37.55;95451.13;5029640;28;7494;-57
2023/02/09 00:47:50;;;;;;;;;;;;;;;25.69;38.16;95443.59;5032902;28;9146;-57
2023/02/09 00:50:17;;;;;;;;;;;;;;;25.69;37.56;95446.34;5046022;28;7064;-57
2023/02/09 00:52:51;;;;;;;;;;;;;;;25.69;38.22;95452.63;5034427;28;7022;-56
2023/02/09 00:55:30;;;;;;;;;;;;;;;25.68;38.12;95453.88;5039331;28;7027;-57
2023/02/09 00:58:03;;;;;;;;;;;;;;;25.67;38.02;95446.84;5044921;28;9138;-57
2023/02/09 01:00:29;;;;;;;;;;;;;;;25.68;38.26;95453.88;5033326;28;9638;-57
2023/02/09 01:03:25;;;;;;;;;;;;;;;25.68;37.40;95451.13;5038363;28;8193;-57
2023/02/09 01:06:04;;;;;;;;;;;;;;;25.67;37.88;95446.84;4939908;28;7239;-57
2023/02/09 01:08:41;;;;;;;;;;;;;;;25.67;37.52;95449.59;4927802;29;9431;-57
2023/02/09 01:11:14;;;;;;;;;;;;;;;25.68;37.32;95447.59;4950494;28;8035;-57
2023/02/09 01:13:58;;;;;;;;;;;;;;;25.68;37.75;95445.63;4945000;28;8821;-56
2023/02/09 01:16:29;;;;;;;;;;;;;;;25.64;37.77;95436.81;4956772;28;7253;-57
2023/02/09 01:19:39;;;;;;;;;;;;;;;25.67;37.29;95437.81;4957180;28;7019;-57
2023/02/09 01:22:07;;;;;;;;;;;;;;;25.67;37.36;95435.81;4941136;28;7408;-56
2023/02/09 01:24:44;;;;;;;;;;;;;;;25.65;37.26;95443.06;4949688;28;9508;-56
2023/02/09 01:27:27;;;;;;;;;;;;;;;25.66;37.63;95433.56;4937593;28;7948;-57
2023/02/09 01:29:55;;;;;;;;;;;;;;;25.65;38.20;95432.78;4938268;28;7210;-57
2023/02/09 01:32:22;;;;;;;;;;;;;;;25.66;38.16;95430.81;4942833;28;7565;-57
2023/02/09 01:34:52;;;;;;;;;;;;;;;25.67;37.22;95435.06;4951361;28;8796;-57
2023/02/09 01:37:42;;;;;;;;;;;;;;;25.65;37.55;95432.78;4922592;28;7262;-57
2023/02/09 01:40:14;;;;;;;;;;;;;;;25.66;37.38;95434.31;4955807;28;7502;-57
2023/02/09 01:42:55;;;;;;;;;;;;;;;25.66;37.31;95428.81;4996815;28;7022;-57
2023/02/09 01:45:49;;;;;;;;;;;;;;;25.67;37.89;95427.56;5023873;28;7042;-56
2023/02/09 01:48:22;;;;;;;;;;;;;;;25.64;37.38;95423.03;5053209;28;7938;-57
2023/02/09 01:51:00;;;;;;;;;;;;;;;25.66;38.23;95428.81;5035250;28;7017;-57
2023/02/09 01:53:35;;;;;;;;;;;;;;;25.66;37.76;95426.06;5035194;28;7242;-57
2023/02/09 01:56:12;;;;;;;;;;;;;;;25.67;37.50;95427.56;5045337;28;7656;-57
2023/02/09 01:58:40;;;;;;;;;;;;;;;25.65;37.51;95424.53;5051275;28;8238;-57
2023/02/09 02:01:10;;;;;;;;;;;;;;;25.65;38.05;95427.28;5035862;28;9471;-57
2023/02/09 02:03:46;;;;;;;;;;;;;;;25.65;37.74;95424.53;5031543;28;8530;-56
2023/02/09 02:06:20;;;;;;;;;;;;;;;25.67;37.33;95426.78;5033771;28;7395;-56
2023/02/09 02:08:58;;;;;;;;;;;;;;;25.67;37.64;95418.53;5043116;28;7673;-56
2023/02/09 02:11:31;;;;;;;;;;;;;;;25.67;37.57;95413.00;5045895;28;7253;-57
2023/02/09 02:13:58;;;;;;;;;;;;;;;25.67;37.42;95418.53;5029620;28;9102;-56
2023/02/09 02:16:58;;;;;;;;;;;;;;;25.68;37.29;95412.53;5030386;28;9173;-57
2023/02/09 02:19:49;;;;;;;;;;;;;;;25.67;37.13;95410.25;5050178;28;8697;-57
2023/02/09 02:26:34;;;;;;;;;;;;;;;25.66;38.12;95401.25;5031328;28;9205;-57
2023/02/09 02:29:23;;;;;;;;;;;;;;;25.65;37.35;95404.47;5014344;28;7099;-57
2023/02/09 02:32:26;;;;;;;;;;;;;;;25.66;37.18;95406.00;5009654;28;8760;-56
2023/02/09 02:35:10;;;;;;;;;;;;;;;25.65;38.08;95399.72;5024199;28;8723;-57
2023/02/09 02:38:01;;;;;;;;;;;;;;;25.66;37.24;95404.00;5012384;28;7182;-57
2023/02/09 02:40:39;;;;;;;;;;;;;;;25.65;38.06;95408.00;5025900;28;7051;-57
2023/02/09 02:46:42;;;;;;;;;;;;;;;25.64;37.59;95403.75;5029262;28;9190;-57
2023/02/09 02:49:47;;;;;;;;;;;;;;;25.65;37.59;95407.22;5017534;28;9271;-57
2023/02/09 02:52:27;;;;;;;;;;;;;;;25.64;37.41;95406.50;5027250;28;7280;-57
2023/02/09 02:55:40;;;;;;;;;;;;;;;25.65;37.40;95407.22;5010759;28;8076;-57
2023/02/09 02:58:26;;;;;;;;;;;;;;;25.64;37.91;95405.75;4933227;28;7165;-57
2023/02/09 03:00:59;;;;;;;;;;;;;;;25.63;37.87;95407.72;4929155;28;7580;-57
2023/02/09 03:03:44;;;;;;;;;;;;;;;25.64;38.05;95403.75;4946544;28;9242;-57
2023/02/09 03:06:12;;;;;;;;;;;;;;;25.63;38.14;95402.22;4934795;28;7560;-57
2023/02/09 03:08:53;;;;;;;;;;;;;;;25.62;37.92;95394.44;4930567;28;7561;-57
2023/02/09 03:11:50;;;;;;;;;;;;;;;25.64;37.90;95394.72;4939907;28;7308;-56
2023/02/09 03:15:09;;;;;;;;;;;;;;;25.63;37.26;95396.72;4945095;28;9350;-57
2023/02/09 03:17:58;;;;;;;;;;;;;;;25.62;37.17;95400.69;4878005;29;7272;-57
2023/02/09 03:21:05;;;;;;;;;;;;;;;25.62;38.20;95400.69;4872051;29;9546;-57
2023/02/09 03:24:27;;;;;;;;;;;;;;;25.62;38.14;95406.19;4895037;29;7315;-57
2023/02/09 03:27:32;;;;;;;;;;;;;;;25.63;37.19;95404.22;4903691;29;7303;-57
2023/02/09 03:30:27;;;;;;;;;;;;;;;25.63;37.47;95399.47;4869897;29;9235;-57
2023/02/09 03:33:27;;;;;;;;;;;;;;;25.62;37.57;95399.97;5086836;28;6969;-55
2023/02/09 03:36:01;;;;;;;;;;;;;;;25.63;37.31;95404.22;5077229;28;7284;-55
2023/02/09 03:38:54;;;;;;;;;;;;;;;25.62;37.32;95400.69;5079740;28;9009;-55
2023/02/09 03:41:23;;;;;;;;;;;;;;;25.62;38.05;95395.19;4987622;28;8748;-55
2023/02/09 03:47:35;;;;;;;;;;;;;;;25.63;38.02;95402.22;5000881;28;9116;-55
2023/02/09 03:50:08;;;;;;;;;;;;;;;25.62;37.62;95408.97;4951579;28;9079;-55
2023/02/09 03:52:35;;;;;;;;;;;;;;;25.63;37.99;95413.25;4960568;28;9011;-55
2023/02/09 03:55:02;;;;;;;;;;;;;;;25.60;37.90;95405.94;4959491;28;8754;-55
2023/02/09 03:57:28;;;;;;;;;;;;;;;25.62;37.11;95408.22;4949329;28;7171;-55
2023/02/09 03:59:54;;;;;;;;;;;;;;;25.63;37.39;95412.47;4961803;28;7114;-55
2023/02/09 04:02:20;;;;;;;;;;;;;;;25.59;38.28;95418.22;4963441;28;7299;-55
2023/02/09 04:04:46;;;;;;;;;;;;;;;25.56;38.08;95408.16;4962239;28;9460;-55
2023/02/09 04:07:14;;;;;;;;;;;;;;;25.55;37.98;95405.91;4985858;28;7346;-55
2023/02/09 04:09:46;;;;;;;;;;;;;;;25.52;37.94;95406.84;4970678;28;9696;-55
2023/02/09 04:12:12;;;;;;;;;;;;;;;25.52;38.09;95407.63;4983955;28;9258;-55
2023/02/09 04:14:38;;;;;;;;;;;;;;;25.61;37.43;95423.22;4969753;28;7122;-55
2023/02/09 04:17:06;;;;;;;;;;;;;;;25.61;37.60;95424.00;4966503;28;9376;-55
2023/02/09 04:19:35;;;;;;;;;;;;;;;25.62;37.17;95422.75;4993373;28;6935;-55
2023/02/09 04:22:01;;;;;;;;;;;;;;;25.60;37.66;95433.50;4998338;28;8711;-55
2023/02/09 04:24:30;;;;;;;;;;;;;;;25.64;38.05;95433.28;5000176;28;9104;-55
2023/02/09 04:26:57;;;;;;;;;;;;;;;25.63;37.44;95435.28;5033007;28;7315;-55
2023/02/09 04:29:28;;;;;;;;;;;;;;;25.63;38.00;95429.78;5073031;28;8706;-55
2023/02/09 04:31:56;;;;;;;;;;;;;;;25.64;37.47;95436.81;5066443;28;9446;-55
2023/02/09 04:34:24;;;;;;;;;;;;;;;25.64;37.40;95436.03;5059903;28;7038;-55
2023/02/09 04:36:51;;;;;;;;;;;;;;;25.61;37.71;95435.00;5062456;28;8980;-55
2023/02/09 04:39:17;;;;;;;;;;;;;;;25.62;37.11;95442.03;5077627;28;7254;-55
2023/02/09 04:42:01;;;;;;;;;;;;;;;25.62;37.96;95436.50;5076134;28;7046;-55
2023/02/09 04:44:35;;;;;;;;;;;;;;;25.64;37.81;95447.06;5043364;28;9053;-55
2023/02/09 04:47:07;;;;;;;;;;;;;;;25.62;37.11;95433.75;5049204;28;6991;-55
2023/02/09 04:49:34;;;;;;;;;;;;;;;25.62;37.97;95444.78;5044348;28;9013;-55
2023/02/09 04:52:07;;;;;;;;;;;;;;;25.64;37.55;95447.84;5058679;28;7295;-55
2023/02/09 04:54:34;;;;;;;;;;;;;;;25.63;37.38;95451.06;5051547;28;8981;-55
2023/02/09 04:59:48;;;;;;;;;;;;;;;25.63;37.23;95453.81;5046680;28;9130;-55
2023/02/09 05:02:21;;;;;;;;;;;;;;;25.64;36.86;95458.09;5047969;28;8287;-55
2023/02/09 05:05:01;;;;;;;;;;;;;;;25.61;37.10;95451.53;5049380;28;7396;-55
2023/02/09 05:07:49;;;;;;;;;;;;;;;25.63;38.03;95456.56;5048191;28;8858;-55
2023/02/09 05:10:31;;;;;;;;;;;;;;;25.61;37.12;95462.56;5051283;28;7440;-55
2023/02/09 05:13:04;;;;;;;;;;;;;;;25.62;37.94;95455.78;5052582;28;9187;-55
2023/02/09 05:15:53;;;;;;;;;;;;;;;25.62;37.68;95461.31;5045312;28;7127;-55
2023/02/09 05:18:23;;;;;;;;;;;;;;;25.62;37.57;95461.31;5048530;28;9362;-55
2023/02/09 05:20:58;;;;;;;;;;;;;;;25.62;37.10;95461.31;5058760;28;7426;-55
2023/02/09 05:23:51;;;;;;;;;;;;;;;25.61;37.32;95459.81;5047685;28;6968;-55
2023/02/09 05:26:47;;;;;;;;;;;;;;;25.63;37.96;95462.84;5050496;28;7218;-55
2023/02/09 05:29:26;;;;;;;;;;;;;;;25.62;37.87;95464.06;5045684;28;7317;-55
2023/02/09 05:31:54;;;;;;;;;;;;;;;25.61;37.02;95465.31;5058017;28;7274;-55
2023/02/09 05:34:32;;;;;;;;;;;;;;;25.58;38.04;95463.53;5045648;28;7254;-55
2023/02/09 05:36:59;;;;;;;;;;;;;;;25.60;37.71;95465.81;5048973;28;9185;-54
2023/02/09 05:39:27;;;;;;;;;;;;;;;25.60;37.97;95465.81;5058324;28;8931;-55
2023/02/09 05:44:43;;;;;;;;;;;;;;;25.61;43.00;95483.84;5045506;28;9330;-55
2023/02/09 05:47:09;;;;;;;;;;;;;;;25.65;38.50;95476.88;5045214;28;7270;-55
2023/02/09 05:49:40;;;;;;;;;;;;;;;25.62;38.02;95482.63;5056124;28;7280;-64
2023/02/09 05:52:09;;;;;;;;;;;;;;;25.63;37.95;95481.34;5064223;28;8395;-65
2023/02/09 05:54:36;;;;;;;;;;;;;;;25.61;36.94;95481.84;5047305;28;9300;-64
2023/02/09 05:57:09;;;;;;;;;;;;;;;25.67;37.14;95474.41;5044873;28;8948;-64
2023/02/09 05:59:36;;;;;;;;;;;;;;;25.68;36.52;95491.69;5040078;28;7633;-64
2023/02/09 06:02:31;;;;;;;;;;;;;;;25.65;37.35;95487.13;5042370;28;7058;-64
2023/02/09 06:05:10;;;;;;;;;;;;;;;25.60;36.73;95477.56;4974695;28;8745;-65
2023/02/09 06:07:47;;;;;;;;;;;;;;;25.60;37.53;95482.34;4967488;28;7263;-64
2023/02/09 06:10:32;;;;;;;;;;;;;;;25.59;37.52;95478.81;4960599;28;7225;-64
2023/02/09 06:13:43;;;;;;;;;;;;;;;25.60;38.06;95482.34;4974736;28;7386;-64
2023/02/09 06:16:11;;;;;;;;;;;;;;;25.58;37.77;95477.28;4924635;28;8256;-65
2023/02/09 06:18:52;;;;;;;;;;;;;;;25.58;37.60;95482.81;4945603;28;7043;-64
2023/02/09 06:21:28;;;;;;;;;;;;;;;25.59;37.70;95480.81;4931498;28;7235;-64
2023/02/09 06:24:24;;;;;;;;;;;;;;;25.59;37.81;95489.84;4946552;28;6990;-65
2023/02/09 06:27:00;;;;;;;;;;;;;;;25.59;38.12;95487.09;4858552;29;9068;-65
2023/02/09 06:29:47;;;;;;;;;;;;;;;25.59;38.18;95489.09;4875095;29;8056;-64
2023/02/09 06:32:23;;;;;;;;;;;;;;;25.58;38.21;95488.31;4872963;29;7034;-65
2023/02/09 06:34:58;;;;;;;;;;;;;;;25.58;38.18;95493.81;4871923;29;9040;-65
2023/02/09 06:37:28;;;;;;;;;;;;;;;25.57;37.83;95500.59;4875794;29;7295;-64
2023/02/09 06:39:58;;;;;;;;;;;;;;;25.61;37.82;95498.38;4859860;29;9102;-65
2023/02/09 06:42:42;;;;;;;;;;;;;;;25.67;37.04;95490.16;4924475;29;7486;-64
2023/02/09 06:45:15;;;;;;;;;;;;;;;25.67;34.68;95485.41;4911455;29;7314;-65
2023/02/09 06:48:01;;;;;;;;;;;;;;;25.63;35.64;95484.88;4922359;29;7016;-65
2023/02/09 06:51:05;;;;;;;;;;;;;;;25.60;35.31;95485.84;4911799;29;7040;-65
2023/02/09 06:53:31;;;;;;;;;;;;;;;25.58;36.32;95485.56;4939513;28;8177;-65
2023/02/09 06:56:08;;;;;;;;;;;;;;;25.57;35.54;95489.56;4963785;28;8274;-64
2023/02/09 06:59:00;;;;;;;;;;;;;;;25.57;35.67;95495.09;4946626;28;9012;-65
2023/02/09 07:01:57;;;;;;;;;;;;;;;25.56;35.96;95496.31;4955087;28;7484;-65
2023/02/09 07:04:38;;;;;;;;;;;;;;;25.55;36.44;95486.56;4966776;28;8771;-65
2023/02/09 07:07:23;;;;;;;;;;;;;;;25.54;36.56;95479.50;4968688;28;7277;-65
2023/02/09 07:10:04;;;;;;;;;;;;;;;25.56;36.18;95490.81;4971476;28;7249;-65
2023/02/09 07:12:42;;;;;;;;;;;;;;;25.56;36.20;95490.03;4968597;28;8724;-65
2023/02/09 07:15:18;;;;;;;;;;;;;;;25.55;36.32;95488.53;4955355;28;7309;-64
2023/02/09 07:17:55;;;;;;;;;;;;;;;25.52;36.84;95489.50;4968337;28;7270;-64
2023/02/09 07:20:32;;;;;;;;;;;;;;;25.51;36.02;95488.75;4969664;28;7226;-64
2023/02/09 07:23:15;;;;;;;;;;;;;;;25.55;36.89;95492.06;4954288;28;7105;-64
2023/02/09 07:25:43;;;;;;;;;;;;;;;25.54;35.32;95493.28;4950770;28;9159;-64
2023/02/09 07:28:21;;;;;;;;;;;;;;;25.54;35.53;95487.78;4952758;28;9210;-63
2023/02/09 07:31:08;;;;;;;;;;;;;;;25.54;36.90;95498.78;4968673;28;7592;-64
2023/02/09 07:33:35;;;;;;;;;;;;;;;25.50;36.50;95498.25;4954249;28;8721;-64
2023/02/09 07:36:09;;;;;;;;;;;;;;;25.52;36.74;95500.50;4954083;28;9035;-64
2023/02/09 07:38:46;;;;;;;;;;;;;;;25.52;37.42;95497.75;4967322;28;7082;-64
2023/02/09 07:41:19;;;;;;;;;;;;;;;25.52;36.74;95495.78;5023628;28;8955;-64
2023/02/09 07:43:55;;;;;;;;;;;;;;;25.54;37.45;95500.78;5054111;28;7175;-64
2023/02/09 07:46:24;;;;;;;;;;;;;;;25.53;37.29;95497.31;5045153;28;8214;-65
2023/02/09 07:49:01;;;;;;;;;;;;;;;25.56;37.71;95501.81;5059989;28;7277;-64
2023/02/09 07:51:31;;;;;;;;;;;;;;;25.55;37.47;95505.06;5045530;28;9034;-65
2023/02/09 07:54:18;;;;;;;;;;;;;;;25.57;36.95;95511.63;5048799;28;7017;-64
2023/02/09 07:56:44;;;;;;;;;;;;;;;25.58;37.25;95499.34;5045905;28;7071;-64
2023/02/09 07:59:18;;;;;;;;;;;;;;;25.59;37.17;95509.13;5061984;28;8796;-64
2023/02/09 08:01:55;;;;;;;;;;;;;;;25.61;37.42;95511.41;5056405;28;9327;-64
2023/02/09 08:04:32;;;;;;;;;;;;;;;25.62;37.25;95510.91;5048573;28;9442;-65
2023/02/09 08:07:30;;;;;;;;;;;;;;;25.63;38.11;95512.44;5047215;28;7264;-65
2023/02/09 08:10:22;;;;;;;;;;;;;;;25.63;37.36;95515.19;5004396;28;7269;-65
2023/02/09 08:13:32;;;;;;;;;;;;;;;25.64;37.75;95513.94;4995198;28;7255;-65
2023/02/09 08:16:04;;;;;;;;;;;;;;;25.63;38.00;95517.94;4933700;28;7289;-65
2023/02/09 08:18:58;;;;;;;;;;;;;;;25.65;37.22;95525.72;4937033;28;9024;-65
2023/02/09 08:21:38;;;;;;;;;;;;;;;25.65;37.41;95522.97;4940327;28;7053;-65
2023/02/09 08:24:19;;;;;;;;;;;;;;;25.61;37.56;95514.91;4939666;28;8746;-65
2023/02/09 08:26:45;;;;;;;;;;;;;;;25.65;37.37;95526.47;4933983;28;7059;-65
2023/02/09 08:29:13;;;;;;;;;;;;;;;25.65;37.41;95520.97;4939335;28;7022;-65
2023/02/09 08:31:45;;;;;;;;;;;;;;;25.66;37.12;95519.72;4963965;28;9063;-65
2023/02/09 08:34:13;;;;;;;;;;;;;;;25.67;38.10;95525.97;4947894;28;9380;-65
2023/02/09 08:39:16;;;;;;;;;;;;;;;25.68;38.11;95533.78;4985120;28;6953;-82
2023/02/09 08:41:42;;;;;;;;;;;;;;;25.68;37.63;95531.03;5016678;23;7484;-56
2023/02/09 08:44:10;;;;;;;;;;;;;;;25.73;38.31;95544.09;5025322;28;9122;-56
2023/02/09 08:46:38;;;;;;;;;;;;;;;25.72;32.01;95542.59;5043152;28;9170;-56
2023/02/09 08:49:42;;;;;;;;;;;;;;;25.41;28.28;95540.44;5044876;28;7035;-56
2023/02/09 08:52:09;;;;;;;;;;;;;;;25.21;28.58;95556.94;4990365;28;7107;-56
2023/02/09 08:54:54;;;;;;;;;;;;;;;25.11;26.78;95555.56;4991585;28;7266;-57
2023/02/09 08:57:22;;;;;;;;;;;;;;;25.09;25.18;95546.28;5144221;23;7282;-65
2023/02/09 08:59:53;;;;;;;;;;;;;;;25.12;24.83;95546.06;5061988;23;7437;-61
2023/02/09 09:02:44;;;;;;;;;;;;;;;25.12;23.35;95545.31;5026012;28;7259;-60
2023/02/09 09:05:20;;;;;;;;;;;;;;;25.13;24.58;95542.06;5028580;28;7055;-61
2023/02/09 09:08:02;;;;;;;;;;;;;;;25.13;24.31;95546.81;5012111;28;9064;-60
2023/02/09 09:11:06;;;;;;;;;;;;;;;25.12;24.50;95551.56;5008666;28;9213;-60
2023/02/09 09:13:44;;;;;;;;;;;;;;;25.13;25.01;95557.84;5030089;28;7195;-60
2023/02/09 09:16:32;;;;;;;;;;;;;;;25.15;25.85;95560.84;5012193;28;9384;-60
2023/02/09 09:19:03;;;;;;;;;;;;;;;25.16;25.70;95554.91;5026600;28;7534;-60
2023/02/09 09:21:32;;;;;;;;;;;;;;;25.19;26.21;95556.66;5027156;28;7166;-60
2023/02/09 09:24:08;;;;;;;;;;;;;;;25.22;27.06;95561.22;5011909;28;7022;-60
2023/02/09 09:26:53;;;;;;;;;;;;;;;25.24;26.90;95566.25;5013148;28;9087;-60
2023/02/09 09:29:46;;;;;;;;;;;;;;;25.28;27.10;95564.03;5025779;28;9082;-60
2023/02/09 09:32:24;;;;;;;;;;;;;;;25.29;27.73;95571.81;5009245;28;9056;-61
2023/02/09 09:35:05;;;;;;;;;;;;;;;25.29;27.48;95560.06;5013450;28;9071;-60
2023/02/09 09:37:42;;;;;;;;;;;;;;;25.31;28.71;95563.09;5026892;28;6880;-61
2023/02/09 09:40:21;;;;;;;;;;;;;;;25.32;28.72;95554.34;5012617;28;7267;-60
2023/02/09 09:43:01;;;;;;;;;;;;;;;25.32;28.39;95553.56;5013396;28;7222;-60
2023/02/09 09:45:34;;;;;;;;;;;;;;;25.35;28.25;95558.13;5010776;28;7822;-62
2023/02/09 09:48:01;;;;;;;;;;;;;;;25.34;29.08;95560.13;5025009;28;9024;-61
2023/02/09 09:50:41;;;;;;;;;;;;;;;25.36;29.11;95551.38;5008189;28;7048;-62
2023/02/09 09:53:33;;;;;;;;;;;;;;;25.40;29.21;95555.44;5025251;28;8761;-62
2023/02/09 09:56:07;;;;;;;;;;;;;;;25.40;29.29;95557.47;5005285;28;7291;-62
2023/02/09 09:58:59;;;;;;;;;;;;;;;25.41;28.98;95564.47;5006117;28;7422;-61
2023/02/09 10:01:35;;;;;;;;;;;;;;;25.40;29.89;95568.47;5027105;28;7009;-61
2023/02/09 10:04:12;;;;;;;;;;;;;;;25.41;29.38;95567.22;5027057;28;7234;-61
2023/02/09 10:06:42;;;;;;;;;;;;;;;25.43;29.77;95573.03;5026011;28;7171;-61
2023/02/09 10:09:39;;;;;;;;;;;;;;;25.45;29.92;95576.06;5006519;28;7518;-62
2023/02/09 10:12:34;;;;;;;;;;;;;;;25.46;30.66;95568.56;5002875;28;9392;-61
2023/02/09 10:15:26;;;;;;;;;;;;;;;25.48;30.99;95577.88;5023584;28;7259;-61
2023/02/09 10:18:12;;;;;;;;;;;;;;;25.49;30.24;95575.88;4971368;28;9326;-61
2023/02/09 10:20:56;;;;;;;;;;;;;;;25.50;30.48;95577.38;4946973;28;9192;-62
2023/02/09 10:23:49;;;;;;;;;;;;;;;25.52;31.37;95575.66;4956178;28;9054;-61
2023/02/09 10:26:17;;;;;;;;;;;;;;;25.52;31.58;95572.13;4945782;28;7044;-61
2023/02/09 10:28:51;;;;;;;;;;;;;;;25.54;31.56;95581.44;4971953;28;7711;-61
2023/02/09 10:31:42;;;;;;;;;;;;;;;25.54;30.59;95573.19;4957470;28;7266;-62
2023/02/09 10:34:40;;;;;;;;;;;;;;;25.56;30.61;95578.97;4937985;28;7724;-61
2023/02/09 10:37:32;;;;;;;;;;;;;;;25.61;31.72;95574.75;4962246;28;9017;-61
2023/02/09 10:40:54;;;;;;;;;;;;;;;25.59;31.88;95583.50;4950672;28;9061;-61
2023/02/09 10:43:34;;;;;;;;;;;;;;;25.60;31.92;95584.28;4934395;29;9023;-61
2023/02/09 10:46:18;;;;;;;;;;;;;;;25.59;31.35;95580.75;4932113;29;9437;-61
2023/02/09 10:48:46;;;;;;;;;;;;;;;25.61;31.26;95581.03;4917035;28;7489;-61
2023/02/09 10:51:32;;;;;;;;;;;;;;;25.62;32.33;95577.03;4936012;28;7300;-61
2023/02/09 10:54:06;;;;;;;;;;;;;;;25.61;31.51;95578.28;4933145;28;7101;-61
2023/02/09 10:56:53;;;;;;;;;;;;;;;25.62;32.39;95579.78;4969689;28;9011;-61
2023/02/09 10:59:35;;;;;;;;;;;;;;;25.62;31.63;95570.78;4952821;28;7629;-61
2023/02/09 11:02:35;;;;;;;;;;;;;;;25.63;32.07;95564.00;4953348;28;7251;-61
2023/02/09 11:05:22;;;;;;;;;;;;;;;25.64;32.48;95569.06;4971156;28;7036;-61
2023/02/09 11:08:17;;;;;;;;;;;;;;;25.66;31.89;95569.34;4972046;28;7015;-61
2023/02/09 11:11:12;;;;;;;;;;;;;;;25.66;32.01;95561.06;4972088;28;8904;-61
2023/02/09 11:13:52;;;;;;;;;;;;;;;25.67;32.76;95562.56;4971030;28;7115;-61
2023/02/09 11:16:29;;;;;;;;;;;;;;;25.68;32.34;95566.09;4970511;28;7026;-61
2023/02/09 11:19:33;;;;;;;;;;;;;;;25.69;32.34;95564.84;5027854;28;8971;-61
2023/02/09 11:22:42;;;;;;;;;;;;;;;25.70;32.99;95558.84;5026113;28;7066;-61
2023/02/09 11:25:17;;;;;;;;;;;;;;;25.70;32.96;95552.59;5027430;28;9135;-61
2023/02/09 11:31:58;;;;;;;;;;;;;;;25.74;33.14;95556.63;5010078;28;9338;-61
2023/02/09 11:34:44;;;;;;;;;;;;;;;25.75;33.46;95549.88;5003880;28;9034;-61
2023/02/09 11:38:00;;;;;;;;;;;;;;;25.76;32.68;95551.41;5010041;28;6990;-61
2023/02/09 11:40:38;;;;;;;;;;;;;;;25.78;33.45;95551.69;5002677;28;7191;-61
2023/02/09 11:43:44;;;;;;;;;;;;;;;25.82;33.38;95549.47;4995563;28;8753;-61
2023/02/09 11:46:24;;;;;;;;;;;;;;;25.85;33.70;95537.47;5008692;28;9452;-61
2023/02/09 11:49:16;;;;;;;;;;;;;;;25.89;33.25;95540.00;4991997;28;8930;-61
2023/02/09 11:51:52;;;;;;;;;;;;;;;25.89;33.46;95535.25;5005373;28;6955;-61
2023/02/09 11:54:33;;;;;;;;;;;;;;;25.92;33.71;95533.53;5010517;28;7315;-61
2023/02/09 11:57:10;;;;;;;;;;;;;;;25.93;33.82;95530.28;4997523;28;7318;-61
2023/02/09 12:00:04;;;;;;;;;;;;;;;25.99;33.89;95539.38;4998331;28;9335;-61
2023/02/09 12:03:10;;;;;;;;;;;;;;;25.96;33.35;95529.31;5014573;28;7125;-61
2023/02/09 12:10:06;;;;;;;;;;;;;;;26.03;33.47;95520.59;4954065;28;7118;-61
2023/02/09 12:16:01;;;;;;;;;;;;;;;26.05;33.57;95515.38;4923946;29;7329;-61
2023/02/09 12:18:41;;;;;;;;;;;;;;;26.07;34.28;95515.66;4926872;29;7062;-61
2023/02/09 12:21:33;;;;;;;;;;;;;;;26.09;33.50;95510.44;4948432;28;7569;-61
2023/02/09 12:24:36;;;;;;;;;;;;;;;26.11;33.86;95510.69;4936469;28;9367;-61
2023/02/09 12:27:25;;;;;;;;;;;;;;;26.12;34.22;95511.47;4919954;29;9045;-61
2023/02/09 12:30:00;;;;;;;;;;;;;;;26.13;33.99;95516.47;4920860;29;7252;-61
2023/02/09 12:33:12;;;;;;;;;;;;;;;26.16;34.42;95506.47;4923523;29;7553;-61
2023/02/09 12:39:30;;;;;;;;;;;;;;;26.22;33.46;95509.28;4917771;29;9219;-61
2023/02/09 12:42:34;;;;;;;;;;;;;;;26.24;33.53;95498.50;4900285;29;9409;-61
2023/02/09 12:45:31;;;;;;;;;;;;;;;26.26;33.44;95490.50;4926828;29;9237;-61
2023/02/09 12:51:52;;;;;;;;;;;;;;;26.29;33.46;95484.03;4935449;29;9135;-61
2023/02/09 12:54:35;;;;;;;;;;;;;;;26.33;33.44;95487.31;4930083;29;9083;-61
2023/02/09 13:01:13;;;;;;;;;;;;;;;26.38;33.67;95481.81;4928900;29;9246;-61
2023/02/09 13:04:14;;;;;;;;;;;;;;;26.38;34.11;95475.56;4896307;29;9523;-61
2023/02/09 13:07:12;;;;;;;;;;;;;;;26.43;34.38;95472.09;4906634;29;9419;-61
2023/02/09 13:10:24;;;;;;;;;;;;;;;26.44;34.44;95477.13;4897669;29;7307;-62
2023/02/09 13:13:20;;;;;;;;;;;;;;;26.48;34.14;95463.09;4912979;29;9023;-61
2023/02/09 13:15:59;;;;;;;;;;;;;;;26.53;33.89;95465.16;4934764;28;7559;-62
2023/02/09 13:19:03;;;;;;;;;;;;;;;26.53;33.84;95476.94;4953771;28;8004;-61
2023/02/09 13:22:14;;;;;;;;;;;;;;;26.57;34.24;95474.72;4894782;29;9065;-61
2023/02/09 13:25:20;;;;;;;;;;;;;;;26.59;33.91;95474.22;4886882;29;7038;-61
2023/02/09 13:28:25;;;;;;;;;;;;;;;26.62;33.96;95473.97;4889506;29;9093;-61
2023/02/09 13:31:37;;;;;;;;;;;;;;;26.67;34.69;95475.25;4897374;29;9082;-61
2023/02/09 13:34:31;;;;;;;;;;;;;;;26.70;34.45;95474.28;4894435;29;7019;-61
2023/02/09 13:37:08;;;;;;;;;;;;;;;26.72;34.29;95478.06;4891396;29;9379;-62
2023/02/09 13:39:56;;;;;;;;;;;;;;;26.74;34.47;95477.59;4902345;29;8135;-61
2023/02/09 13:42:55;;;;;;;;;;;;;;;26.78;34.03;95483.66;4913520;29;7162;-61
2023/02/09 13:45:38;;;;;;;;;;;;;;;26.79;33.93;95474.91;4879622;29;7715;-62
2023/02/09 13:48:28;;;;;;;;;;;;;;;26.83;34.02;95466.38;4875557;29;7268;-62
2023/02/09 13:51:00;;;;;;;;;;;;;;;26.86;34.37;95476.44;4872486;29;8981;-62
2023/02/09 13:53:31;;;;;;;;;;;;;;;26.88;34.18;95465.66;4874376;29;9038;-62
2023/02/09 13:55:59;;;;;;;;;;;;;;;26.92;34.68;95473.69;4876860;28;9022;-62
2023/02/09 13:59:18;;;;;;;;;;;;;;;26.93;34.30;95475.94;4949392;28;7770;-61
2023/02/09 14:01:47;;;;;;;;;;;;;;;26.99;33.89;95473.25;4890115;29;9211;-62
2023/02/09 14:04:24;;;;;;;;;;;;;;;27.00;33.88;95475.50;4882914;29;7249;-62
2023/02/09 14:07:13;;;;;;;;;;;;;;;27.02;33.35;95478.50;4880887;29;7058;-61
2023/02/09 14:10:15;;;;;;;;;;;;;;;27.06;34.28;95472.75;4877881;29;8889;-62
2023/02/09 14:13:13;;;;;;;;;;;;;;;27.08;33.49;95462.00;4854352;29;9036;-62
2023/02/09 14:16:06;;;;;;;;;;;;;;;27.11;34.11;95470.03;4846778;29;9020;-62
2023/02/09 14:18:58;;;;;;;;;;;;;;;27.16;34.36;95463.78;4840691;29;7205;-62
2023/02/09 14:21:53;;;;;;;;;;;;;;;27.19;33.65;95470.31;4856370;29;8576;-61
2023/02/09 14:24:42;;;;;;;;;;;;;;;27.19;34.09;95465.53;4881912;29;8138;-61
2023/02/09 14:27:25;;;;;;;;;;;;;;;27.22;33.38;95470.09;4877414;29;9138;-61
2023/02/09 14:30:01;;;;;;;;;;;;;;;27.24;33.30;95464.81;4880854;29;9310;-61
2023/02/09 14:32:47;;;;;;;;;;;;;;;27.27;33.16;95465.84;4876155;29;7207;-61
2023/02/09 14:35:39;;;;;;;;;;;;;;;27.29;33.26;95466.84;4904807;29;8770;-61
2023/02/09 14:38:59;;;;;;;;;;;;;;;27.31;33.31;95471.88;4931250;28;9007;-60
2023/02/09 14:41:30;;;;;;;;;;;;;;;27.32;33.16;95462.31;4918897;28;7037;-61
2023/02/09 14:44:29;;;;;;;;;;;;;;;27.36;33.34;95474.66;4925913;29;8948;-60
2023/02/09 14:47:50;;;;;;;;;;;;;;;27.39;33.43;95478.47;4926397;29;9167;-61
2023/02/09 14:50:42;;;;;;;;;;;;;;;27.41;33.47;95475.94;4955510;28;7415;-61
2023/02/09 14:53:14;;;;;;;;;;;;;;;27.43;33.62;95476.22;4955704;28;7444;-60
2023/02/09 14:55:43;;;;;;;;;;;;;;;27.47;33.32;95479.50;4968054;28;7317;-60
2023/02/09 14:58:45;;;;;;;;;;;;;;;27.48;33.28;95476.25;4972499;28;8518;-60